| time (UTC) | temp F | wind direction | speed MPH | gust MPH | rain 1hr in | rain 24hr in | rain mn in | humidity % | barometer mb |
| 20260905151653 | 59 | 300 | 24.0 | 0.0 | 0.00 | 0.00 | 0.00 | 62 | |
| 20260905141654 | 61 | 280 | 18.0 | 33.0 | 0.00 | 0.00 | 0.00 | 59 | |
| 20260905131945 | 59 | 290 | 26.0 | 38.0 | 0.00 | 0.00 | 0.00 | 62 | |
| 20260905121854 | 61 | 300 | 20.0 | 33.0 | 0.00 | 0.00 | 0.00 | 63 | |
| 20260905111747 | 59 | 290 | 22.0 | 33.0 | 0.00 | 0.00 | 0.00 | 67 | |
| 20260905102205 | 59 | 260 | 18.0 | 29.0 | 0.00 | 0.00 | 0.00 | 72 | |
| 20260905091754 | 55 | 280 | 20.0 | 0.0 | 0.00 | 0.00 | 0.00 | 82 | |
| 20260905081747 | 54 | 280 | 20.0 | 0.0 | 0.00 | 0.00 | 0.00 | 87 | |
| 20260905072049 | 52 | 270 | 16.0 | 26.0 | 0.00 | 0.00 | 0.00 | 99 | |
| 20260905061747 | 52 | 290 | 14.0 | 0.0 | 0.00 | 0.00 | 0.00 | 99 | |
| 20260905051746 | 52 | 290 | 22.0 | 0.0 | 0.00 | 0.00 | 0.00 | 99 | |
| 20260905042148 | 52 | 280 | 24.0 | 0.0 | 0.00 | 0.00 | 0.00 | 99 | |
| 20260905031747 | 52 | 280 | 26.0 | 38.0 | 0.00 | 0.00 | 0.00 | 99 | |
| 20260905021746 | 52 | 280 | 29.0 | 0.0 | 0.00 | 0.00 | 0.00 | 99 | |
| 20260905012047 | 54 | 290 | 20.0 | 0.0 | 0.00 | 0.00 | 0.00 | 87 | |
| 20260905001802 | 55 | 290 | 20.0 | 0.0 | 0.00 | 0.00 | 0.00 | 71 | |
| 20260904231818 | 55 | 310 | 36.0 | 59.0 | 0.00 | 0.00 | 0.00 | 82 | |
| 20260904222204 | 55 | 320 | 29.0 | 45.0 | 0.00 | 0.00 | 0.00 | 99 | |
| 20260904211805 | 59 | 320 | 9.0 | 0.0 | 0.00 | 0.00 | 0.00 | 87 | |
| 20260904201803 | 68 | 270 | 20.0 | 0.0 | 0.00 | 0.00 | 0.00 | 72 | |
| 20260904192048 | 66 | 320 | 18.0 | 38.0 | 0.00 | 0.00 | 0.00 | 77 | |
| 20260904181746 | 72 | 250 | 31.0 | 45.0 | 0.00 | 0.00 | 0.00 | 68 | |
| 20260904171805 | 72 | 260 | 24.0 | 38.0 | 0.00 | 0.00 | 0.00 | 68 | |
| 20260904162048 | 72 | 260 | 29.0 | 40.0 | 0.00 | 0.00 | 0.00 | 68 |